Time;durP1;ratioP1;P1;durP2;ratioP2;P2;SDS_P1;SDS_P2;PMS_P1;PMS_P2;Temp;Humidity;BMP_temperature;BMP_pressure;BME280_temperature;BME280_humidity;BME280_pressure;Samples;Min_cycle;Max_cycle;Signal;HPM_P1;HPM_P2
2022/03/15 00:07:41;;;;;;;51.90;23.60;;;;;;;4.52;38.83;99972.14;432595;1270;108869;-41
2022/03/15 00:17:48;;;;;;;59.90;25.80;;;;;;;4.48;39.20;99968.14;432523;1270;99280;-40
2022/03/15 00:27:56;;;;;;;42.70;23.00;;;;;;;4.45;39.24;99959.62;432647;1270;112978;-42
2022/03/15 00:38:04;;;;;;;42.90;24.60;;;;;;;4.39;39.40;99961.95;432413;1270;109389;-40
2022/03/15 00:48:11;;;;;;;43.10;20.20;;;;;;;4.37;39.75;99950.33;432477;1269;99290;-41
2022/03/15 00:58:18;;;;;;;32.10;17.10;;;;;;;4.46;39.96;99942.73;432409;1270;112358;-42
2022/03/15 01:08:25;;;;;;;39.60;20.20;;;;;;;4.50;40.09;99945.38;432477;1270;108613;-41
2022/03/15 01:18:34;;;;;;;35.40;18.00;;;;;;;4.54;40.10;99933.21;432402;1271;99343;-44
2022/03/15 01:28:42;;;;;;;35.10;18.30;;;;;;;4.54;40.19;99933.19;432365;1270;112469;-42
2022/03/15 01:48:57;;;;;;;37.00;18.40;;;;;;;4.32;40.30;99944.00;432529;1270;99254;-42
2022/03/15 01:59:04;;;;;;;31.30;19.00;;;;;;;4.22;40.49;99941.48;432662;1269;112355;-40
2022/03/15 02:19:15;;;;;;;33.10;17.40;;;;;;;3.97;40.71;99947.51;432708;1271;99321;-40
2022/03/15 02:29:26;;;;;;;35.70;17.40;;;;;;;3.84;40.93;99951.46;433017;1262;109211;-37
2022/03/15 02:39:34;;;;;;;42.60;21.00;;;;;;;3.69;41.22;99953.71;432626;1271;99253;-41
2022/03/15 02:49:41;;;;;;;32.10;17.60;;;;;;;3.53;41.46;99951.09;432571;1273;113126;-41
2022/03/15 02:59:48;;;;;;;39.80;20.80;;;;;;;3.37;41.63;99976.77;432430;1271;106884;-41
2022/03/15 03:09:55;;;;;;;38.70;17.70;;;;;;;3.15;41.89;99987.45;432547;1271;99282;-40
2022/03/15 03:20:05;;;;;;;38.00;20.40;;;;;;;2.91;42.22;99987.17;432669;1270;112348;-42
2022/03/15 03:30:13;;;;;;;38.60;20.00;;;;;;;2.72;42.67;99987.39;432371;1272;108706;-43
2022/03/15 03:40:20;;;;;;;43.90;20.80;;;;;;;2.59;43.14;99970.95;432383;1273;98068;-41
2022/03/15 03:50:26;;;;;;;50.90;23.40;;;;;;;2.43;43.74;99976.77;432498;1273;112660;-42
2022/03/15 04:00:34;;;;;;;45.50;23.40;;;;;;;2.39;43.93;99976.44;432415;1271;110302;-41
2022/03/15 04:10:41;;;;;;;47.50;23.30;;;;;;;2.38;44.11;99971.11;432483;1271;99425;-40
2022/03/15 04:20:49;;;;;;;54.40;22.90;;;;;;;2.35;44.76;99969.81;432530;1271;109083;-40
2022/03/15 04:30:57;;;;;;;46.90;24.10;;;;;;;2.24;44.82;99983.77;432437;1271;99269;-41
2022/03/15 04:51:13;;;;;;;53.50;27.60;;;;;;;1.86;45.50;99979.10;432679;1271;107551;-40
2022/03/15 05:01:25;;;;;;;61.50;28.70;;;;;;;1.69;45.89;99985.21;432534;1271;99284;-39
2022/03/15 05:11:34;;;;;;;53.40;27.20;;;;;;;1.67;46.36;99983.64;432667;1271;112396;-40
2022/03/15 05:21:41;;;;;;;59.70;30.70;;;;;;;1.74;46.70;99979.86;432450;1271;108843;-40
2022/03/15 05:31:48;;;;;;;52.90;28.20;;;;;;;1.82;47.04;99986.09;432623;1271;99283;-40
2022/03/15 05:41:55;;;;;;;55.70;27.20;;;;;;;2.23;47.08;99985.98;432445;1271;112440;-41
2022/03/15 05:52:03;;;;;;;55.60;28.40;;;;;;;3.49;46.96;99989.47;432423;1271;108566;-43
2022/03/15 06:02:10;;;;;;;46.80;24.90;;;;;;;4.41;46.53;99994.48;432702;1271;98037;-41
2022/03/15 06:12:16;;;;;;;45.20;22.10;;;;;;;5.66;46.19;99991.16;432375;1273;112507;-41
2022/03/15 06:22:23;;;;;;;39.20;21.10;;;;;;;6.82;45.42;100000.97;432497;1270;109367;-43
2022/03/15 06:32:29;;;;;;;36.10;20.40;;;;;;;7.87;44.83;99997.15;432568;1271;99254;-41
2022/03/15 06:42:37;;;;;;;51.30;22.80;;;;;;;8.94;44.43;99987.95;432425;1271;109389;-41
2022/03/15 06:52:45;;;;;;;46.00;21.40;;;;;;;10.15;43.86;99979.68;432419;1271;99350;-44
2022/03/15 07:02:52;;;;;;;65.70;24.00;;;;;;;11.10;43.31;99975.52;432523;1271;112443;-41
2022/03/15 07:13:00;;;;;;;38.50;22.10;;;;;;;11.69;42.59;99984.17;432597;1270;107880;-41
2022/03/15 07:23:07;;;;;;;39.20;19.90;;;;;;;11.38;42.39;99986.86;432494;1271;98403;-41
2022/03/15 07:33:14;;;;;;;29.30;17.90;;;;;;;11.31;42.83;99985.66;432676;1271;112475;-41
2022/03/15 08:03:34;;;;;;;23.00;11.00;;;;;;;11.98;43.96;99984.83;432537;1271;108397;-44
2022/03/15 08:13:40;;;;;;;14.10;8.30;;;;;;;12.42;44.13;99974.15;432511;1271;99379;-42
2022/03/15 08:23:48;;;;;;;11.90;7.70;;;;;;;12.57;44.55;99966.02;432648;1271;112440;-41
2022/03/15 08:33:55;;;;;;;19.50;8.80;;;;;;;12.69;44.86;99949.23;432558;1271;108883;-40
2022/03/15 08:44:02;;;;;;;13.40;7.80;;;;;;;13.05;44.92;99945.12;432413;1273;98069;-41
2022/03/15 08:54:10;;;;;;;13.10;7.70;;;;;;;13.14;44.75;99937.42;432439;1273;108847;-41
2022/03/15 09:04:17;;;;;;;11.30;6.60;;;;;;;13.23;44.96;99937.47;432078;1271;541137;-42
2022/03/15 09:14:24;;;;;;;11.50;6.20;;;;;;;13.42;44.90;99928.92;432419;1271;112038;-41
2022/03/15 09:34:37;;;;;;;11.90;8.00;;;;;;;13.74;44.97;99913.89;432446;1271;99273;-41
2022/03/15 09:44:45;;;;;;;14.50;8.10;;;;;;;13.86;44.79;99904.25;432505;1271;108327;-41
2022/03/15 09:54:54;;;;;;;13.60;9.10;;;;;;;13.82;44.73;99889.25;432520;1271;99261;-41
2022/03/15 10:05:01;;;;;;;13.00;8.10;;;;;;;14.01;44.73;99884.98;432666;1271;111792;-43
2022/03/15 10:15:21;;;;;;;14.40;8.50;;;;;;;13.88;44.58;99873.22;432530;1271;108852;-43
2022/03/15 10:25:30;;;;;;;12.40;7.30;;;;;;;14.20;44.63;99862.77;432602;1271;99260;-42
2022/03/15 10:35:39;;;;;;;14.30;7.40;;;;;;;14.40;44.26;99849.60;432543;1271;109193;-40
2022/03/15 10:45:48;;;;;;;11.30;6.80;;;;;;;14.62;43.85;99832.31;432533;1271;101255;-41
2022/03/15 10:56:08;;;;;;;11.40;6.20;;;;;;;14.71;43.25;99820.59;432405;1271;112609;-41
2022/03/15 11:06:30;;;;;;;10.90;6.70;;;;;;;14.70;43.20;99812.95;432656;1271;108741;-41
2022/03/15 11:16:38;;;;;;;6.30;5.20;;;;;;;14.88;42.98;99800.30;432418;1271;99279;-41
2022/03/15 11:26:49;;;;;;;8.10;4.50;;;;;;;14.98;42.68;99790.85;432395;1271;108637;-41
2022/03/15 11:37:00;;;;;;;9.70;5.00;;;;;;;14.97;42.22;99781.28;432524;1271;99289;-40
2022/03/15 12:17:39;;;;;;;10.10;6.80;;;;;;;14.65;40.78;99719.11;432671;1271;107679;-41
2022/03/15 12:27:47;;;;;;;10.00;5.20;;;;;;;14.47;40.69;99706.68;432467;1271;99278;-40
2022/03/15 12:38:05;;;;;;;7.70;4.40;;;;;;;14.44;40.61;99688.94;432478;1271;112489;-43
2022/03/15 12:48:12;;;;;;;7.60;5.10;;;;;;;14.37;40.00;99675.38;432481;1271;108462;-43
2022/03/15 13:08:51;;;;;;;6.50;4.90;;;;;;;14.29;39.70;99648.23;432577;1271;108817;-41
2022/03/15 13:19:04;;;;;;;10.30;5.20;;;;;;;14.25;40.08;99635.77;432473;1271;99257;-44
2022/03/15 13:29:14;;;;;;;7.00;5.40;;;;;;;14.35;39.79;99631.10;432545;1271;112464;-41
2022/03/15 13:39:20;;;;;;;7.00;5.60;;;;;;;14.10;40.10;99620.23;432427;1271;108889;-40
2022/03/15 13:49:29;;;;;;;7.80;5.00;;;;;;;13.95;39.91;99613.80;432470;1271;99143;-41
2022/03/15 13:59:36;;;;;;;7.70;5.30;;;;;;;13.85;39.96;99609.45;432281;1271;109105;-42
2022/03/15 14:09:44;;;;;;;7.60;5.00;;;;;;;13.78;39.62;99599.28;432441;1271;99278;-43
2022/03/15 14:19:55;;;;;;;8.40;5.20;;;;;;;13.80;40.20;99583.71;432368;1271;111251;-42
2022/03/15 14:30:02;;;;;;;47.90;7.60;;;;;;;13.62;40.34;99571.38;432365;1271;108827;-42
2022/03/15 14:40:12;;;;;;;11.60;5.70;;;;;;;13.44;40.56;99561.02;432408;1271;99273;-41
2022/03/15 15:00:25;;;;;;;9.30;5.40;;;;;;;13.50;41.01;99526.51;432354;1271;99283;-41
2022/03/15 15:10:33;;;;;;;11.50;7.70;;;;;;;13.35;40.76;99512.37;432350;1273;111008;-43
2022/03/15 15:40:55;;;;;;;12.00;6.20;;;;;;;12.69;41.72;99482.88;432525;1271;108849;-41
2022/03/15 15:51:03;;;;;;;10.00;6.70;;;;;;;12.55;42.24;99470.44;432513;1271;98395;-42
2022/03/15 16:01:13;;;;;;;16.90;9.00;;;;;;;12.37;42.31;99468.75;432635;1271;112445;-42
2022/03/15 16:11:22;;;;;;;35.60;15.00;;;;;;;12.17;42.74;99466.88;432436;1271;109118;-40
2022/03/15 16:21:29;;;;;;;51.50;23.20;;;;;;;11.94;42.91;99457.85;432390;1273;99257;-41
2022/03/15 16:31:43;;;;;;;53.00;25.50;;;;;;;11.67;43.13;99452.78;432756;1271;108904;-40
2022/03/15 16:41:50;;;;;;;50.80;25.30;;;;;;;11.42;43.61;99447.73;432551;1271;99254;-40
2022/03/15 16:51:57;;;;;;;58.30;28.40;;;;;;;11.12;43.97;99439.01;432513;1271;112471;-41
2022/03/15 17:32:29;;;;;;;47.70;23.60;;;;;;;9.94;46.35;99406.05;432418;1271;99395;-41
2022/03/15 17:42:41;;;;;;;136.90;48.00;;;;;;;9.58;46.77;99402.32;432459;1271;112749;-41
2022/03/15 17:53:13;;;;;;;55.30;27.80;;;;;;;9.35;47.30;99381.86;432637;1271;108838;-41
2022/03/15 18:03:25;;;;;;;39.10;20.90;;;;;;;9.21;47.79;99369.52;432741;1271;99256;-40
2022/03/15 18:23:40;;;;;;;42.90;21.00;;;;;;;9.16;48.07;99347.02;432796;1271;108185;-42
2022/03/15 18:33:56;;;;;;;33.00;19.00;;;;;;;9.09;48.49;99326.20;432526;1271;98043;-41
2022/03/15 18:44:04;;;;;;;42.20;19.80;;;;;;;9.11;48.97;99310.09;432583;1271;111278;-42
2022/03/15 19:04:19;;;;;;;38.20;17.90;;;;;;;8.97;49.67;99285.73;432528;1271;97967;-41
2022/03/15 19:14:29;;;;;;;49.90;22.50;;;;;;;8.84;49.82;99282.78;432631;1271;112707;-40
2022/03/15 19:24:38;;;;;;;36.50;20.80;;;;;;;8.73;50.13;99275.50;432563;1271;108770;-42
2022/03/15 19:34:46;;;;;;;44.90;21.80;;;;;;;8.67;50.65;99253.95;432587;1269;99283;-41
2022/03/15 19:44:56;;;;;;;54.20;28.80;;;;;;;8.65;50.89;99234.45;432578;1271;112609;-40
2022/03/15 19:55:03;;;;;;;41.30;21.60;;;;;;;8.63;51.24;99208.41;432453;1273;108923;-42
2022/03/15 20:25:23;;;;;;;55.10;26.90;;;;;;;8.46;51.31;99162.58;432384;1273;108799;-40
2022/03/15 20:35:30;;;;;;;59.50;27.50;;;;;;;8.43;51.36;99161.89;432536;1273;99278;-42
2022/03/15 20:45:37;;;;;;;58.10;29.70;;;;;;;8.37;51.31;99163.02;432564;1271;112632;-41
2022/03/15 20:55:46;;;;;;;56.20;27.40;;;;;;;8.28;51.38;99176.93;432289;1271;109577;-42
2022/03/15 21:05:54;;;;;;;73.90;32.90;;;;;;;8.15;51.57;99167.08;430160;1273;3084186;-41
2022/03/15 21:16:02;;;;;;;62.20;30.80;;;;;;;7.92;51.64;99172.05;432620;1271;108924;-41
2022/03/15 21:36:13;;;;;;;60.60;32.60;;;;;;;7.33;52.33;99144.96;432534;1271;112241;-42
2022/03/15 21:46:21;;;;;;;71.00;33.10;;;;;;;7.12;52.70;99122.67;432555;1271;108643;-42
2022/03/15 21:56:27;;;;;;;68.40;33.90;;;;;;;7.12;52.98;99105.89;432532;1271;99282;-41
2022/03/15 22:06:35;;;;;;;67.50;34.50;;;;;;;7.03;53.18;99092.85;432435;1271;112458;-41
2022/03/15 22:16:41;;;;;;;74.40;38.00;;;;;;;6.84;53.50;99081.19;432529;1273;108937;-41
2022/03/15 22:26:48;;;;;;;67.10;34.30;;;;;;;6.65;53.81;99066.08;432519;1273;98010;-41
2022/03/15 23:18:16;;;;;;;96.40;47.10;;;;;;;6.44;54.99;99020.85;432306;1273;108805;-41
2022/03/15 23:28:24;;;;;;;94.90;43.10;;;;;;;6.56;55.08;99015.25;432392;1272;98002;-41
2022/03/15 23:38:31;;;;;;;87.00;41.60;;;;;;;6.61;55.06;99013.73;432530;1271;112298;-40
2022/03/15 23:48:39;;;;;;;83.50;41.40;;;;;;;6.68;55.03;99011.52;432551;1271;108938;-41
2022/03/15 23:58:46;;;;;;;104.20;47.80;;;;;;;6.72;55.14;99011.38;432576;1271;99266;-42
